sensor_id;sensor_type;location;lat;lon;timestamp;pressure;altitude;pressure_sealevel;temperature
80537;BMP280;69867;47.074;15.404;2023-11-22T00:00:14;97222.16;;;4.41
80537;BMP280;69867;47.074;15.404;2023-11-22T00:02:39;97229.88;;;4.41
80537;BMP280;69867;47.074;15.404;2023-11-22T00:05:05;97223.00;;;4.43
80537;BMP280;69867;47.074;15.404;2023-11-22T00:07:34;97223.00;;;4.42
80537;BMP280;69867;47.074;15.404;2023-11-22T00:10:00;97231.59;;;4.41
80537;BMP280;69867;47.074;15.404;2023-11-22T00:12:25;97233.31;;;4.42
80537;BMP280;69867;47.074;15.404;2023-11-22T00:14:51;97229.88;;;4.38
80537;BMP280;69867;47.074;15.404;2023-11-22T00:17:16;97220.47;;;4.39
80537;BMP280;69867;47.074;15.404;2023-11-22T00:19:42;97224.75;;;4.37
80537;BMP280;69867;47.074;15.404;2023-11-22T00:22:07;97213.59;;;4.38
80537;BMP280;69867;47.074;15.404;2023-11-22T00:24:32;97216.16;;;4.41
80537;BMP280;69867;47.074;15.404;2023-11-22T00:26:58;97218.75;;;4.39
80537;BMP280;69867;47.074;15.404;2023-11-22T00:29:23;97215.31;;;4.37
80537;BMP280;69867;47.074;15.404;2023-11-22T00:31:48;97222.19;;;4.35
80537;BMP280;69867;47.074;15.404;2023-11-22T00:34:14;97229.06;;;4.30
80537;BMP280;69867;47.074;15.404;2023-11-22T00:36:39;97217.09;;;4.26
80537;BMP280;69867;47.074;15.404;2023-11-22T00:39:04;97222.25;;;4.23
80537;BMP280;69867;47.074;15.404;2023-11-22T00:41:31;97232.53;;;4.22
80537;BMP280;69867;47.074;15.404;2023-11-22T00:43:56;97228.25;;;4.17
80537;BMP280;69867;47.074;15.404;2023-11-22T00:46:22;97233.41;;;4.17
80537;BMP280;69867;47.074;15.404;2023-11-22T00:48:47;97236.00;;;4.14
80537;BMP280;69867;47.074;15.404;2023-11-22T00:51:12;97236.84;;;4.16
80537;BMP280;69867;47.074;15.404;2023-11-22T00:53:38;97238.56;;;4.14
80537;BMP280;69867;47.074;15.404;2023-11-22T00:56:05;97235.16;;;4.08
80537;BMP280;69867;47.074;15.404;2023-11-22T00:58:30;97230.91;;;4.02
80537;BMP280;69867;47.074;15.404;2023-11-22T01:00:56;97235.19;;;4.00
80537;BMP280;69867;47.074;15.404;2023-11-22T01:03:21;97233.47;;;3.96
80537;BMP280;69867;47.074;15.404;2023-11-22T01:05:46;97230.91;;;3.95
80537;BMP280;69867;47.074;15.404;2023-11-22T01:08:12;97234.34;;;3.97
80537;BMP280;69867;47.074;15.404;2023-11-22T01:10:37;97234.34;;;3.97
80537;BMP280;69867;47.074;15.404;2023-11-22T01:13:03;97245.47;;;3.97
80537;BMP280;69867;47.074;15.404;2023-11-22T01:15:28;97240.31;;;3.88
80537;BMP280;69867;47.074;15.404;2023-11-22T01:17:53;97244.63;;;3.83
80537;BMP280;69867;47.074;15.404;2023-11-22T01:20:19;97242.06;;;3.83
80537;BMP280;69867;47.074;15.404;2023-11-22T01:22:44;97240.34;;;3.83
80537;BMP280;69867;47.074;15.404;2023-11-22T01:25:09;97243.75;;;3.84
80537;BMP280;69867;47.074;15.404;2023-11-22T01:27:35;97245.47;;;3.85
80537;BMP280;69867;47.074;15.404;2023-11-22T01:30:00;97244.63;;;3.88
80537;BMP280;69867;47.074;15.404;2023-11-22T01:32:25;97254.06;;;3.92
80537;BMP280;69867;47.074;15.404;2023-11-22T01:34:50;97255.78;;;3.91
80537;BMP280;69867;47.074;15.404;2023-11-22T01:37:16;97249.78;;;3.94
80537;BMP280;69867;47.074;15.404;2023-11-22T01:39:41;97253.19;;;3.91
80537;BMP280;69867;47.074;15.404;2023-11-22T01:42:07;97254.91;;;3.86
80537;BMP280;69867;47.074;15.404;2023-11-22T01:44:32;97255.75;;;3.82
80537;BMP280;69867;47.074;15.404;2023-11-22T01:46:58;97265.19;;;3.75
80537;BMP280;69867;47.074;15.404;2023-11-22T01:49:23;97255.78;;;3.70
80537;BMP280;69867;47.074;15.404;2023-11-22T01:51:49;97272.06;;;3.60
80537;BMP280;69867;47.074;15.404;2023-11-22T01:54:15;97266.94;;;3.49
80537;BMP280;69867;47.074;15.404;2023-11-22T01:56:42;97272.94;;;3.45
80537;BMP280;69867;47.074;15.404;2023-11-22T01:59:07;97260.94;;;3.42
80537;BMP280;69867;47.074;15.404;2023-11-22T02:01:33;97266.94;;;3.38
80537;BMP280;69867;47.074;15.404;2023-11-22T02:03:58;97274.66;;;3.32
80537;BMP280;69867;47.074;15.404;2023-11-22T02:06:24;97272.09;;;3.28
80537;BMP280;69867;47.074;15.404;2023-11-22T02:08:50;97278.94;;;3.22
80537;BMP280;69867;47.074;15.404;2023-11-22T02:11:18;97281.50;;;3.18
80537;BMP280;69867;47.074;15.404;2023-11-22T02:13:43;97282.34;;;3.14
80537;BMP280;69867;47.074;15.404;2023-11-22T02:16:09;97279.78;;;3.05
80537;BMP280;69867;47.074;15.404;2023-11-22T02:18:34;97280.63;;;3.02
80537;BMP280;69867;47.074;15.404;2023-11-22T02:21:00;97285.75;;;2.99
80537;BMP280;69867;47.074;15.404;2023-11-22T02:23:25;97292.59;;;2.96
80537;BMP280;69867;47.074;15.404;2023-11-22T02:25:50;97305.41;;;2.91
80537;BMP280;69867;47.074;15.404;2023-11-22T02:28:16;97307.94;;;2.82
80537;BMP280;69867;47.074;15.404;2023-11-22T02:30:41;97304.50;;;2.75
80537;BMP280;69867;47.074;15.404;2023-11-22T02:33:07;97303.66;;;2.73
80537;BMP280;69867;47.074;15.404;2023-11-22T02:35:33;97299.38;;;2.71
80537;BMP280;69867;47.074;15.404;2023-11-22T02:37:59;97300.22;;;2.68
80537;BMP280;69867;47.074;15.404;2023-11-22T02:40:24;97299.34;;;2.66
80537;BMP280;69867;47.074;15.404;2023-11-22T02:42:51;97307.03;;;2.63
80537;BMP280;69867;47.074;15.404;2023-11-22T02:45:18;97310.47;;;2.62
80537;BMP280;69867;47.074;15.404;2023-11-22T02:47:44;97313.03;;;2.65
80537;BMP280;69867;47.074;15.404;2023-11-22T02:50:09;97307.91;;;2.62
80537;BMP280;69867;47.074;15.404;2023-11-22T02:52:35;97303.63;;;2.63
80537;BMP280;69867;47.074;15.404;2023-11-22T02:55:00;97305.34;;;2.68
80537;BMP280;69867;47.074;15.404;2023-11-22T02:57:25;97301.94;;;2.69
80537;BMP280;69867;47.074;15.404;2023-11-22T02:59:51;97292.53;;;2.76
80537;BMP280;69867;47.074;15.404;2023-11-22T03:02:16;97304.53;;;2.77
80537;BMP280;69867;47.074;15.404;2023-11-22T03:04:41;97297.66;;;2.73
80537;BMP280;69867;47.074;15.404;2023-11-22T03:07:07;97295.94;;;2.70
80537;BMP280;69867;47.074;15.404;2023-11-22T03:09:32;97300.22;;;2.65
80537;BMP280;69867;47.074;15.404;2023-11-22T03:11:57;97301.94;;;2.68
80537;BMP280;69867;47.074;15.404;2023-11-22T03:14:23;97301.06;;;2.61
80537;BMP280;69867;47.074;15.404;2023-11-22T03:16:49;97301.84;;;2.54
80537;BMP280;69867;47.074;15.404;2023-11-22T03:19:14;97306.13;;;2.55
80537;BMP280;69867;47.074;15.404;2023-11-22T03:21:40;97310.41;;;2.56
80537;BMP280;69867;47.074;15.404;2023-11-22T03:24:09;97313.81;;;2.56
80537;BMP280;69867;47.074;15.404;2023-11-22T03:26:35;97306.13;;;2.53
80537;BMP280;69867;47.074;15.404;2023-11-22T03:29:00;97315.53;;;2.53
80537;BMP280;69867;47.074;15.404;2023-11-22T03:31:26;97318.94;;;2.55
80537;BMP280;69867;47.074;15.404;2023-11-22T03:33:51;97327.50;;;2.55
80537;BMP280;69867;47.074;15.404;2023-11-22T03:36:17;97328.34;;;2.53
80537;BMP280;69867;47.074;15.404;2023-11-22T03:38:42;97334.31;;;2.52
80537;BMP280;69867;47.074;15.404;2023-11-22T03:41:07;97335.19;;;2.51
80537;BMP280;69867;47.074;15.404;2023-11-22T03:43:33;97336.00;;;2.47
80537;BMP280;69867;47.074;15.404;2023-11-22T03:45:58;97336.00;;;2.44
80537;BMP280;69867;47.074;15.404;2023-11-22T03:48:23;97340.28;;;2.46
80537;BMP280;69867;47.074;15.404;2023-11-22T03:50:49;97342.84;;;2.45
80537;BMP280;69867;47.074;15.404;2023-11-22T03:53:15;97349.69;;;2.46
80537;BMP280;69867;47.074;15.404;2023-11-22T03:55:40;97354.00;;;2.51
80537;BMP280;69867;47.074;15.404;2023-11-22T03:58:05;97354.84;;;2.53
80537;BMP280;69867;47.074;15.404;2023-11-22T04:00:31;97358.34;;;2.60
80537;BMP280;69867;47.074;15.404;2023-11-22T04:02:56;97362.63;;;2.64
80537;BMP280;69867;47.074;15.404;2023-11-22T04:05:22;97353.19;;;2.60
80537;BMP280;69867;47.074;15.404;2023-11-22T04:07:47;97353.16;;;2.55
80537;BMP280;69867;47.074;15.404;2023-11-22T04:10:12;97359.97;;;2.53
80537;BMP280;69867;47.074;15.404;2023-11-22T04:12:38;97354.84;;;2.52
80537;BMP280;69867;47.074;15.404;2023-11-22T04:15:04;97356.53;;;2.48
80537;BMP280;69867;47.074;15.404;2023-11-22T04:17:30;97358.25;;;2.48
80537;BMP280;69867;47.074;15.404;2023-11-22T04:19:55;97361.69;;;2.50
80537;BMP280;69867;47.074;15.404;2023-11-22T04:22:21;97357.41;;;2.50
80537;BMP280;69867;47.074;15.404;2023-11-22T04:24:46;97359.97;;;2.52
80537;BMP280;69867;47.074;15.404;2023-11-22T04:27:11;97359.09;;;2.45
80537;BMP280;69867;47.074;15.404;2023-11-22T04:29:37;97369.34;;;2.47
80537;BMP280;69867;47.074;15.404;2023-11-22T04:32:02;97378.75;;;2.45
80537;BMP280;69867;47.074;15.404;2023-11-22T04:34:27;97391.56;;;2.42
80537;BMP280;69867;47.074;15.404;2023-11-22T04:36:53;97396.69;;;2.42
80537;BMP280;69867;47.074;15.404;2023-11-22T04:39:18;97398.38;;;2.40
80537;BMP280;69867;47.074;15.404;2023-11-22T04:41:43;97400.94;;;2.37
80537;BMP280;69867;47.074;15.404;2023-11-22T04:44:09;97400.03;;;2.30
80537;BMP280;69867;47.074;15.404;2023-11-22T04:46:34;97410.25;;;2.22
80537;BMP280;69867;47.074;15.404;2023-11-22T04:48:59;97412.75;;;2.16
80537;BMP280;69867;47.074;15.404;2023-11-22T04:51:25;97417.88;;;2.13
80537;BMP280;69867;47.074;15.404;2023-11-22T04:53:50;97421.19;;;2.00
80537;BMP280;69867;47.074;15.404;2023-11-22T04:56:16;97416.91;;;2.01
80537;BMP280;69867;47.074;15.404;2023-11-22T04:58:41;97429.75;;;2.01
80537;BMP280;69867;47.074;15.404;2023-11-22T05:01:06;97433.97;;;1.97
80537;BMP280;69867;47.074;15.404;2023-11-22T05:03:32;97437.38;;;1.95
80537;BMP280;69867;47.074;15.404;2023-11-22T05:05:57;97451.00;;;1.90
80537;BMP280;69867;47.074;15.404;2023-11-22T05:08:22;97445.91;;;1.95
80537;BMP280;69867;47.074;15.404;2023-11-22T05:10:47;97447.63;;;1.95
80537;BMP280;69867;47.074;15.404;2023-11-22T05:13:13;97452.78;;;1.98
80537;BMP280;69867;47.074;15.404;2023-11-22T05:15:41;97463.00;;;1.96
80537;BMP280;69867;47.074;15.404;2023-11-22T05:18:06;97449.34;;;1.97
80537;BMP280;69867;47.074;15.404;2023-11-22T05:20:31;97464.75;;;2.00
80537;BMP280;69867;47.074;15.404;2023-11-22T05:22:57;97467.31;;;2.00
80537;BMP280;69867;47.074;15.404;2023-11-22T05:25:22;97472.38;;;1.94
80537;BMP280;69867;47.074;15.404;2023-11-22T05:27:47;97471.56;;;1.97
80537;BMP280;69867;47.074;15.404;2023-11-22T05:30:13;97480.13;;;1.99
80537;BMP280;69867;47.074;15.404;2023-11-22T05:32:38;97482.66;;;1.97
80537;BMP280;69867;47.074;15.404;2023-11-22T05:35:04;97494.66;;;2.01
80537;BMP280;69867;47.074;15.404;2023-11-22T05:37:30;97506.66;;;2.05
80537;BMP280;69867;47.074;15.404;2023-11-22T05:39:55;97499.84;;;2.07
80537;BMP280;69867;47.074;15.404;2023-11-22T05:42:20;97500.72;;;2.09
80537;BMP280;69867;47.074;15.404;2023-11-22T05:44:46;97491.31;;;2.08
80537;BMP280;69867;47.074;15.404;2023-11-22T05:47:11;97496.44;;;2.08
80537;BMP280;69867;47.074;15.404;2023-11-22T05:49:37;97511.84;;;2.11
80537;BMP280;69867;47.074;15.404;2023-11-22T05:52:02;97504.16;;;2.14
80537;BMP280;69867;47.074;15.404;2023-11-22T05:54:27;97523.00;;;2.18
80537;BMP280;69867;47.074;15.404;2023-11-22T05:56:53;97526.44;;;2.20
80537;BMP280;69867;47.074;15.404;2023-11-22T05:59:18;97522.19;;;2.23
80537;BMP280;69867;47.074;15.404;2023-11-22T06:01:43;97524.75;;;2.25
80537;BMP280;69867;47.074;15.404;2023-11-22T06:04:09;97517.09;;;2.27
80537;BMP280;69867;47.074;15.404;2023-11-22T06:06:34;97530.75;;;2.25
80537;BMP280;69867;47.074;15.404;2023-11-22T06:09:00;97523.91;;;2.24
80537;BMP280;69867;47.074;15.404;2023-11-22T06:11:25;97520.47;;;2.22
80537;BMP280;69867;47.074;15.404;2023-11-22T06:13:50;97527.28;;;2.20
80537;BMP280;69867;47.074;15.404;2023-11-22T06:16:15;97544.38;;;2.21
80537;BMP280;69867;47.074;15.404;2023-11-22T06:18:41;97542.69;;;2.23
80537;BMP280;69867;47.074;15.404;2023-11-22T06:21:07;97547.75;;;2.14
80537;BMP280;69867;47.074;15.404;2023-11-22T06:23:33;97552.16;;;2.29
80537;BMP280;69867;47.074;15.404;2023-11-22T06:25:58;97546.97;;;2.23
80537;BMP280;69867;47.074;15.404;2023-11-22T06:28:23;97549.53;;;2.21
80537;BMP280;69867;47.074;15.404;2023-11-22T06:30:49;97564.09;;;2.29
80537;BMP280;69867;47.074;15.404;2023-11-22T06:33:14;97568.38;;;2.28
80537;BMP280;69867;47.074;15.404;2023-11-22T06:35:39;97576.09;;;2.33
80537;BMP280;69867;47.074;15.404;2023-11-22T06:38:04;97582.13;;;2.38
80537;BMP280;69867;47.074;15.404;2023-11-22T06:40:30;97583.00;;;2.38
80537;BMP280;69867;47.074;15.404;2023-11-22T06:42:55;97584.81;;;2.50
80537;BMP280;69867;47.074;15.404;2023-11-22T06:45:20;97581.34;;;2.46
80537;BMP280;69867;47.074;15.404;2023-11-22T06:47:46;97591.56;;;2.42
80537;BMP280;69867;47.074;15.404;2023-11-22T06:50:11;97601.84;;;2.42
80537;BMP280;69867;47.074;15.404;2023-11-22T06:55:02;97610.41;;;2.45
80537;BMP280;69867;47.074;15.404;2023-11-22T06:57:28;97614.72;;;2.48
80537;BMP280;69867;47.074;15.404;2023-11-22T06:59:53;97621.56;;;2.49
80537;BMP280;69867;47.074;15.404;2023-11-22T07:02:19;97619.00;;;2.49
80537;BMP280;69867;47.074;15.404;2023-11-22T07:04:45;97623.25;;;2.48
80537;BMP280;69867;47.074;15.404;2023-11-22T07:07:10;97633.50;;;2.45
80537;BMP280;69867;47.074;15.404;2023-11-22T07:09:35;97630.00;;;2.39
80537;BMP280;69867;47.074;15.404;2023-11-22T07:12:01;97632.50;;;2.30
80537;BMP280;69867;47.074;15.404;2023-11-22T07:14:26;97641.91;;;2.32
80537;BMP280;69867;47.074;15.404;2023-11-22T07:16:51;97645.44;;;2.42
80537;BMP280;69867;47.074;15.404;2023-11-22T07:19:17;97644.63;;;2.46
80537;BMP280;69867;47.074;15.404;2023-11-22T07:21:42;97635.25;;;2.51
80537;BMP280;69867;47.074;15.404;2023-11-22T07:24:08;97639.56;;;2.55
80537;BMP280;69867;47.074;15.404;2023-11-22T07:26:33;97643.09;;;2.62
80537;BMP280;69867;47.074;15.404;2023-11-22T07:28:58;97653.38;;;2.66
80537;BMP280;69867;47.074;15.404;2023-11-22T07:31:24;97651.72;;;2.73
80537;BMP280;69867;47.074;15.404;2023-11-22T07:33:49;97658.63;;;2.80
80537;BMP280;69867;47.074;15.404;2023-11-22T07:36:14;97662.13;;;2.88
80537;BMP280;69867;47.074;15.404;2023-11-22T07:38:40;97662.13;;;2.89
80537;BMP280;69867;47.074;15.404;2023-11-22T07:41:05;97665.59;;;2.96
80537;BMP280;69867;47.074;15.404;2023-11-22T07:43:31;97669.94;;;3.03
80537;BMP280;69867;47.074;15.404;2023-11-22T07:45:56;97677.69;;;3.09
80537;BMP280;69867;47.074;15.404;2023-11-22T07:48:21;97678.59;;;3.16
80537;BMP280;69867;47.074;15.404;2023-11-22T07:50:47;97669.22;;;3.22
80537;BMP280;69867;47.074;15.404;2023-11-22T07:53:12;97668.41;;;3.30
80537;BMP280;69867;47.074;15.404;2023-11-22T07:55:38;97661.56;;;3.30
80537;BMP280;69867;47.074;15.404;2023-11-22T07:58:03;97667.56;;;3.32
80537;BMP280;69867;47.074;15.404;2023-11-22T08:00:29;97669.31;;;3.36
80537;BMP280;69867;47.074;15.404;2023-11-22T08:02:54;97677.88;;;3.38
80537;BMP280;69867;47.074;15.404;2023-11-22T08:05:19;97683.06;;;3.44
80537;BMP280;69867;47.074;15.404;2023-11-22T08:07:45;97681.38;;;3.51
80537;BMP280;69867;47.074;15.404;2023-11-22T08:10:10;97676.31;;;3.60
80537;BMP280;69867;47.074;15.404;2023-11-22T08:12:36;97676.34;;;3.68
80537;BMP280;69867;47.074;15.404;2023-11-22T08:15:01;97688.38;;;3.75
80537;BMP280;69867;47.074;15.404;2023-11-22T08:17:27;97692.69;;;3.82
80537;BMP280;69867;47.074;15.404;2023-11-22T08:19:52;97691.06;;;3.90
80537;BMP280;69867;47.074;15.404;2023-11-22T08:22:17;97685.06;;;3.96
80537;BMP280;69867;47.074;15.404;2023-11-22T08:24:43;97687.69;;;4.05
80537;BMP280;69867;47.074;15.404;2023-11-22T08:27:08;97682.56;;;4.12
80537;BMP280;69867;47.074;15.404;2023-11-22T08:29:33;97692.03;;;4.18
80537;BMP280;69867;47.074;15.404;2023-11-22T08:31:59;97690.31;;;4.25
80537;BMP280;69867;47.074;15.404;2023-11-22T08:34:24;97691.22;;;4.33
80537;BMP280;69867;47.074;15.404;2023-11-22T08:36:49;97686.94;;;4.38
80537;BMP280;69867;47.074;15.404;2023-11-22T08:39:15;97687.81;;;4.43
80537;BMP280;69867;47.074;15.404;2023-11-22T08:41:40;97691.25;;;4.48
80537;BMP280;69867;47.074;15.404;2023-11-22T08:44:05;97705.00;;;4.53
80537;BMP280;69867;47.074;15.404;2023-11-22T08:46:31;97706.72;;;4.63
80537;BMP280;69867;47.074;15.404;2023-11-22T08:48:56;97715.31;;;4.71
80537;BMP280;69867;47.074;15.404;2023-11-22T08:51:21;97726.50;;;4.79
80537;BMP280;69867;47.074;15.404;2023-11-22T08:53:47;97721.34;;;4.92
80537;BMP280;69867;47.074;15.404;2023-11-22T08:56:12;97721.38;;;5.02
80537;BMP280;69867;47.074;15.404;2023-11-22T08:58:39;97720.50;;;5.11
80537;BMP280;69867;47.074;15.404;2023-11-22T09:01:05;97725.69;;;5.20
80537;BMP280;69867;47.074;15.404;2023-11-22T09:03:31;97720.53;;;5.26
80537;BMP280;69867;47.074;15.404;2023-11-22T09:05:57;97723.13;;;5.34
80537;BMP280;69867;47.074;15.404;2023-11-22T09:08:22;97718.81;;;5.40
80537;BMP280;69867;47.074;15.404;2023-11-22T09:10:47;97712.78;;;5.46
80537;BMP280;69867;47.074;15.404;2023-11-22T09:13:13;97711.06;;;5.54
80537;BMP280;69867;47.074;15.404;2023-11-22T09:15:38;97713.63;;;5.69
80537;BMP280;69867;47.074;15.404;2023-11-22T09:18:04;97710.13;;;5.86
80537;BMP280;69867;47.074;15.404;2023-11-22T09:20:30;97704.97;;;5.99
80537;BMP280;69867;47.074;15.404;2023-11-22T09:22:55;97708.41;;;6.04
80537;BMP280;69867;47.074;15.404;2023-11-22T09:25:22;97715.25;;;6.12
80537;BMP280;69867;47.074;15.404;2023-11-22T09:27:49;97714.34;;;6.23
80537;BMP280;69867;47.074;15.404;2023-11-22T09:30:16;97711.72;;;6.31
80537;BMP280;69867;47.074;15.404;2023-11-22T09:32:41;97703.06;;;6.41
80537;BMP280;69867;47.074;15.404;2023-11-22T09:35:07;97710.78;;;6.46
80537;BMP280;69867;47.074;15.404;2023-11-22T09:37:32;97712.50;;;6.54
80537;BMP280;69867;47.074;15.404;2023-11-22T09:39:58;97716.75;;;6.64
80537;BMP280;69867;47.074;15.404;2023-11-22T09:42:23;97711.59;;;6.64
80537;BMP280;69867;47.074;15.404;2023-11-22T09:44:48;97704.69;;;6.65
80537;BMP280;69867;47.074;15.404;2023-11-22T09:47:14;97715.88;;;6.68
80537;BMP280;69867;47.074;15.404;2023-11-22T09:49:40;97717.56;;;6.72
80537;BMP280;69867;47.074;15.404;2023-11-22T09:52:09;97712.38;;;6.77
80537;BMP280;69867;47.074;15.404;2023-11-22T09:54:37;97707.19;;;6.79
80537;BMP280;69867;47.074;15.404;2023-11-22T09:57:04;97718.31;;;6.88
80537;BMP280;69867;47.074;15.404;2023-11-22T09:59:30;97720.88;;;6.94
80537;BMP280;69867;47.074;15.404;2023-11-22T10:01:56;97716.53;;;6.99
80537;BMP280;69867;47.074;15.404;2023-11-22T10:04:21;97727.69;;;7.03
80537;BMP280;69867;47.074;15.404;2023-11-22T10:06:47;97721.66;;;7.05
80537;BMP280;69867;47.074;15.404;2023-11-22T10:09:13;97726.78;;;7.12
80537;BMP280;69867;47.074;15.404;2023-11-22T10:11:38;97740.50;;;7.18
80537;BMP280;69867;47.074;15.404;2023-11-22T10:14:04;97731.88;;;7.19
80537;BMP280;69867;47.074;15.404;2023-11-22T10:16:29;97731.84;;;7.24
80537;BMP280;69867;47.074;15.404;2023-11-22T10:18:55;97740.41;;;7.30
80537;BMP280;69867;47.074;15.404;2023-11-22T10:21:24;97732.66;;;7.30
80537;BMP280;69867;47.074;15.404;2023-11-22T10:24:09;97734.41;;;7.28
80537;BMP280;69867;47.074;15.404;2023-11-22T10:26:35;97730.06;;;7.29
80537;BMP280;69867;47.074;15.404;2023-11-22T10:29:00;97737.81;;;7.33
80537;BMP280;69867;47.074;15.404;2023-11-22T10:31:26;97732.56;;;7.39
80537;BMP280;69867;47.074;15.404;2023-11-22T10:33:53;97740.25;;;7.49
80537;BMP280;69867;47.074;15.404;2023-11-22T10:36:18;97739.34;;;7.53
80537;BMP280;69867;47.074;15.404;2023-11-22T10:38:47;97744.50;;;7.57
80537;BMP280;69867;47.074;15.404;2023-11-22T10:41:13;97747.06;;;7.59
80537;BMP280;69867;47.074;15.404;2023-11-22T10:43:39;97743.56;;;7.63
80537;BMP280;69867;47.074;15.404;2023-11-22T10:46:05;97744.50;;;7.56
80537;BMP280;69867;47.074;15.404;2023-11-22T10:48:31;97747.97;;;7.55
80537;BMP280;69867;47.074;15.404;2023-11-22T10:50:57;97749.66;;;7.59
80537;BMP280;69867;47.074;15.404;2023-11-22T10:53:33;97767.75;;;7.59
80537;BMP280;69867;47.074;15.404;2023-11-22T10:56:12;97766.88;;;7.60
80537;BMP280;69867;47.074;15.404;2023-11-22T10:58:55;97761.66;;;7.66
80537;BMP280;69867;47.074;15.404;2023-11-22T11:01:23;97766.78;;;7.70
80537;BMP280;69867;47.074;15.404;2023-11-22T11:04:09;97776.22;;;7.76
80537;BMP280;69867;47.074;15.404;2023-11-22T11:06:37;97780.50;;;7.79
80537;BMP280;69867;47.074;15.404;2023-11-22T11:09:03;97784.81;;;7.80
80537;BMP280;69867;47.074;15.404;2023-11-22T11:11:29;97786.53;;;7.82
80537;BMP280;69867;47.074;15.404;2023-11-22T11:13:56;97782.19;;;7.86
80537;BMP280;69867;47.074;15.404;2023-11-22T11:16:22;97789.06;;;7.88
80537;BMP280;69867;47.074;15.404;2023-11-22T11:18:49;97796.78;;;7.93
80537;BMP280;69867;47.074;15.404;2023-11-22T11:21:15;97786.38;;;7.99
80537;BMP280;69867;47.074;15.404;2023-11-22T11:23:40;97786.34;;;8.03
80537;BMP280;69867;47.074;15.404;2023-11-22T11:26:17;97794.91;;;8.07
80537;BMP280;69867;47.074;15.404;2023-11-22T11:28:46;97788.88;;;8.08
80537;BMP280;69867;47.074;15.404;2023-11-22T11:31:12;97794.84;;;8.15
80537;BMP280;69867;47.074;15.404;2023-11-22T11:36:23;97808.66;;;8.14
80537;BMP280;69867;47.074;15.404;2023-11-22T11:38:48;97801.75;;;8.13
80537;BMP280;69867;47.074;15.404;2023-11-22T11:41:14;97792.28;;;8.12
80537;BMP280;69867;47.074;15.404;2023-11-22T11:43:44;97788.78;;;8.16
80537;BMP280;69867;47.074;15.404;2023-11-22T11:46:11;97791.34;;;8.20
80537;BMP280;69867;47.074;15.404;2023-11-22T11:48:36;97800.81;;;8.21
80537;BMP280;69867;47.074;15.404;2023-11-22T11:51:02;97795.63;;;8.23
80537;BMP280;69867;47.074;15.404;2023-11-22T11:53:27;97786.09;;;8.25
80537;BMP280;69867;47.074;15.404;2023-11-22T11:55:53;97784.34;;;8.27
80537;BMP280;69867;47.074;15.404;2023-11-22T11:58:19;97792.09;;;8.28
80537;BMP280;69867;47.074;15.404;2023-11-22T12:00:45;97790.34;;;8.32
80537;BMP280;69867;47.074;15.404;2023-11-22T12:03:10;97786.03;;;8.34
80537;BMP280;69867;47.074;15.404;2023-11-22T12:05:39;97786.88;;;8.36
80537;BMP280;69867;47.074;15.404;2023-11-22T12:08:05;97793.81;;;8.34
80537;BMP280;69867;47.074;15.404;2023-11-22T12:10:31;97786.00;;;8.37
80537;BMP280;69867;47.074;15.404;2023-11-22T12:12:57;97788.59;;;8.37
80537;BMP280;69867;47.074;15.404;2023-11-22T12:15:22;97794.59;;;8.39
80537;BMP280;69867;47.074;15.404;2023-11-22T12:17:48;97794.56;;;8.42
80537;BMP280;69867;47.074;15.404;2023-11-22T12:20:15;97791.13;;;8.43
80537;BMP280;69867;47.074;15.404;2023-11-22T12:22:41;97778.13;;;8.46
80537;BMP280;69867;47.074;15.404;2023-11-22T12:25:07;97780.63;;;8.54
80537;BMP280;69867;47.074;15.404;2023-11-22T12:27:33;97780.63;;;8.52
80537;BMP280;69867;47.074;15.404;2023-11-22T12:29:58;97788.41;;;8.54
80537;BMP280;69867;47.074;15.404;2023-11-22T12:32:24;97791.81;;;8.57
80537;BMP280;69867;47.074;15.404;2023-11-22T12:34:49;97785.75;;;8.57
80537;BMP280;69867;47.074;15.404;2023-11-22T12:37:15;97792.66;;;8.59
80537;BMP280;69867;47.074;15.404;2023-11-22T12:39:40;97799.53;;;8.60
80537;BMP280;69867;47.074;15.404;2023-11-22T12:42:06;97800.41;;;8.61
80537;BMP280;69867;47.074;15.404;2023-11-22T12:44:31;97799.50;;;8.62
80537;BMP280;69867;47.074;15.404;2023-11-22T12:46:56;97800.34;;;8.65
80537;BMP280;69867;47.074;15.404;2023-11-22T12:49:25;97791.75;;;8.62
80537;BMP280;69867;47.074;15.404;2023-11-22T12:51:55;97793.47;;;8.61
80537;BMP280;69867;47.074;15.404;2023-11-22T12:54:21;97799.53;;;8.60
80537;BMP280;69867;47.074;15.404;2023-11-22T12:56:50;97796.97;;;8.59
80537;BMP280;69867;47.074;15.404;2023-11-22T12:59:16;97805.66;;;8.55
80537;BMP280;69867;47.074;15.404;2023-11-22T13:01:41;97803.09;;;8.52
80537;BMP280;69867;47.074;15.404;2023-11-22T13:04:07;97801.38;;;8.52
80537;BMP280;69867;47.074;15.404;2023-11-22T13:06:32;97790.16;;;8.52
80537;BMP280;69867;47.074;15.404;2023-11-22T13:08:58;97796.16;;;8.54
80537;BMP280;69867;47.074;15.404;2023-11-22T13:11:23;97791.84;;;8.54
80537;BMP280;69867;47.074;15.404;2023-11-22T13:13:48;97794.44;;;8.53
80537;BMP280;69867;47.074;15.404;2023-11-22T13:16:14;97796.19;;;8.51
80537;BMP280;69867;47.074;15.404;2023-11-22T13:18:39;97806.53;;;8.52
80537;BMP280;69867;47.074;15.404;2023-11-22T13:21:05;97809.13;;;8.52
80537;BMP280;69867;47.074;15.404;2023-11-22T13:23:30;97803.91;;;8.55
80537;BMP280;69867;47.074;15.404;2023-11-22T13:25:55;97798.75;;;8.54
80537;BMP280;69867;47.074;15.404;2023-11-22T13:28:21;97794.41;;;8.56
80537;BMP280;69867;47.074;15.404;2023-11-22T13:30:46;97798.72;;;8.57
80537;BMP280;69867;47.074;15.404;2023-11-22T13:33:11;97802.13;;;8.60
80537;BMP280;69867;47.074;15.404;2023-11-22T13:35:37;97809.00;;;8.63
80537;BMP280;69867;47.074;15.404;2023-11-22T13:38:02;97802.97;;;8.62
80537;BMP280;69867;47.074;15.404;2023-11-22T13:40:28;97807.31;;;8.60
80537;BMP280;69867;47.074;15.404;2023-11-22T13:42:54;97810.78;;;8.59
80537;BMP280;69867;47.074;15.404;2023-11-22T13:45:20;97811.66;;;8.57
80537;BMP280;69867;47.074;15.404;2023-11-22T13:47:52;97810.88;;;8.52
80537;BMP280;69867;47.074;15.404;2023-11-22T13:50:18;97799.69;;;8.48
80537;BMP280;69867;47.074;15.404;2023-11-22T13:52:43;97816.09;;;8.47
80537;BMP280;69867;47.074;15.404;2023-11-22T13:55:08;97825.63;;;8.45
80537;BMP280;69867;47.074;15.404;2023-11-22T13:57:34;97810.13;;;8.42
80537;BMP280;69867;47.074;15.404;2023-11-22T13:59:59;97800.66;;;8.40
80537;BMP280;69867;47.074;15.404;2023-11-22T14:02:25;97830.00;;;8.40
80537;BMP280;69867;47.074;15.404;2023-11-22T14:04:50;97836.91;;;8.40